Time;durP1;ratioP1;P1;durP2;ratioP2;P2;SDS_P1;SDS_P2;PMS_P1;PMS_P2;Temp;Humidity;BMP_temperature;BMP_pressure;BME280_temperature;BME280_humidity;BME280_pressure;Samples;Min_cycle;Max_cycle;Signal;HPM_P1;HPM_P2
2023/06/19 00:01:22;;;;;;;6.30;4.05;;;20.70;70.00;;;;;;4940658;28;86213;-79
2023/06/19 00:03:47;;;;;;;7.70;3.97;;;20.70;70.20;;;;;;4971655;28;90553;-79
2023/06/19 00:06:13;;;;;;;5.88;4.25;;;20.70;70.90;;;;;;4940853;28;87229;-79
2023/06/19 00:08:41;;;;;;;7.20;3.85;;;20.60;71.60;;;;;;4941413;28;86385;-80
2023/06/19 00:11:07;;;;;;;5.15;3.97;;;20.60;71.90;;;;;;4940067;28;86771;-79
2023/06/19 00:13:33;;;;;;;6.63;3.92;;;20.60;72.10;;;;;;4940651;28;87965;-79
2023/06/19 00:16:00;;;;;;;5.22;3.65;;;20.50;72.60;;;;;;4940378;28;87394;-79
2023/06/19 00:18:26;;;;;;;5.20;3.80;;;20.50;72.60;;;;;;4941069;28;85939;-79
2023/06/19 00:20:54;;;;;;;5.18;3.78;;;20.50;72.80;;;;;;4929999;28;86371;-79
2023/06/19 00:23:19;;;;;;;5.45;4.03;;;20.50;73.00;;;;;;4972746;28;88986;-79
2023/06/19 00:25:45;;;;;;;5.68;3.90;;;20.50;73.10;;;;;;4940170;28;87469;-79
2023/06/19 00:28:13;;;;;;;6.32;3.58;;;20.50;73.10;;;;;;4971879;28;86352;-78
2023/06/19 00:30:39;;;;;;;5.80;4.05;;;20.50;73.10;;;;;;4972060;28;86614;-78
2023/06/19 00:33:05;;;;;;;4.65;3.60;;;20.40;73.40;;;;;;4940076;28;87076;-78
2023/06/19 00:35:31;;;;;;;5.88;3.72;;;20.40;73.80;;;;;;4941035;28;87195;-79
2023/06/19 00:38:00;;;;;;;5.75;3.85;;;20.40;73.80;;;;;;4940023;28;86785;-79
2023/06/19 00:40:31;;;;;;;5.60;3.75;;;20.30;74.10;;;;;;4940465;28;86319;-78
2023/06/19 00:42:57;;;;;;;5.55;3.95;;;20.30;74.50;;;;;;4939857;28;87639;-79
2023/06/19 00:45:24;;;;;;;4.80;3.50;;;20.30;74.40;;;;;;4940031;28;87323;-79
2023/06/19 00:47:52;;;;;;;8.73;4.20;;;20.20;74.70;;;;;;4971415;28;86487;-79
2023/06/19 00:50:17;;;;;;;5.80;4.28;;;20.20;74.70;;;;;;4940555;28;86108;-79
2023/06/19 00:52:43;;;;;;;5.32;3.25;;;20.30;75.00;;;;;;4939885;28;86753;-78
2023/06/19 00:55:10;;;;;;;5.60;3.97;;;20.20;75.00;;;;;;4940363;28;86848;-79
2023/06/19 00:57:36;;;;;;;5.00;3.53;;;20.20;75.30;;;;;;4940276;28;86117;-78
2023/06/19 01:00:07;;;;;;;4.70;3.72;;;20.20;75.40;;;;;;4939463;28;86804;-79
2023/06/19 01:02:34;;;;;;;5.93;3.80;;;20.20;75.80;;;;;;4940539;28;87358;-79
2023/06/19 01:05:00;;;;;;;6.60;3.83;;;20.20;76.00;;;;;;4939721;28;87111;-79
2023/06/19 01:07:50;;;;;;;6.20;3.78;;;20.10;76.40;;;;;;4939285;28;86342;-77
2023/06/19 01:10:20;;;;;;;4.85;3.50;;;20.10;76.40;;;;;;4938234;28;86595;-79
2023/06/19 01:13:15;;;;;;;4.13;3.15;;;20.10;76.50;;;;;;4939584;28;87333;-79
2023/06/19 01:15:42;;;;;;;4.35;3.47;;;20.10;77.20;;;;;;4937010;28;86019;-79
2023/06/19 01:18:11;;;;;;;4.75;3.60;;;20.10;77.20;;;;;;4939520;28;86429;-78
2023/06/19 01:20:37;;;;;;;6.07;3.90;;;20.10;77.70;;;;;;4938607;28;86992;-80
2023/06/19 01:23:11;;;;;;;5.32;3.28;;;20.00;78.00;;;;;;4938999;28;87710;-78
2023/06/19 01:25:36;;;;;;;;;;;20.00;78.30;;;;;;4939524;28;86905;-78
2023/06/19 01:28:05;;;;;;;4.75;2.95;;;20.00;78.90;;;;;;4940922;28;86237;-79
2023/06/19 01:30:32;;;;;;;5.43;3.58;;;20.00;79.10;;;;;;4938122;28;86519;-79
2023/06/19 01:33:03;;;;;;;4.80;3.47;;;20.00;79.40;;;;;;4969717;28;90307;-79
2023/06/19 01:35:32;;;;;;;5.63;3.42;;;20.00;79.60;;;;;;4940360;28;86702;-79
2023/06/19 01:37:59;;;;;;;5.53;3.88;;;20.00;80.20;;;;;;4939374;28;86704;-79
2023/06/19 01:40:27;;;;;;;4.40;3.28;;;20.00;80.60;;;;;;4970588;28;86205;-78
2023/06/19 01:42:54;;;;;;;4.55;3.17;;;19.90;81.10;;;;;;4970382;28;90652;-79
2023/06/19 01:45:20;;;;;;;5.60;3.92;;;19.90;81.60;;;;;;4938464;28;87407;-79
2023/06/19 01:47:46;;;;;;;7.03;4.00;;;19.90;81.90;;;;;;4937505;28;86784;-79
2023/06/19 01:50:12;;;;;;;5.10;3.88;;;19.90;82.40;;;;;;4939602;28;86502;-79
2023/06/19 01:52:40;;;;;;;4.95;3.65;;;19.80;82.40;;;;;;4939197;28;87463;-79
2023/06/19 01:55:07;;;;;;;4.30;3.40;;;19.90;83.10;;;;;;4939038;28;85794;-79
2023/06/19 01:57:33;;;;;;;5.07;3.10;;;19.90;83.50;;;;;;4938954;28;86359;-79
2023/06/19 01:59:58;;;;;;;4.43;2.95;;;19.90;84.10;;;;;;4938856;28;86268;-79
2023/06/19 02:02:24;;;;;;;5.15;3.53;;;19.90;84.60;;;;;;4939789;28;87409;-79
2023/06/19 02:04:49;;;;;;;5.22;3.55;;;19.90;84.80;;;;;;4938891;28;87508;-79
2023/06/19 02:07:15;;;;;;;5.50;3.53;;;19.90;84.80;;;;;;4939318;28;86095;-79
2023/06/19 02:09:41;;;;;;;6.00;3.00;;;19.90;85.00;;;;;;4939135;28;86454;-79
2023/06/19 02:12:07;;;;;;;5.20;3.20;;;19.90;85.10;;;;;;4968743;28;89164;-79
2023/06/19 02:14:33;;;;;;;4.55;3.28;;;19.90;85.30;;;;;;4953806;28;90309;-79
2023/06/19 02:16:58;;;;;;;4.00;3.25;;;19.80;85.20;;;;;;4939464;28;86586;-80
2023/06/19 02:19:24;;;;;;;5.88;3.40;;;19.80;85.40;;;;;;4970131;28;85972;-78
2023/06/19 02:21:49;;;;;;;6.25;3.25;;;19.80;85.90;;;;;;4938624;28;87200;-80
2023/06/19 02:24:15;;;;;;;5.55;3.42;;;19.70;86.00;;;;;;4938513;28;86998;-79
2023/06/19 02:26:41;;;;;;;5.07;3.38;;;19.60;86.30;;;;;;4939317;28;86541;-79
2023/06/19 02:29:06;;;;;;;6.07;3.10;;;19.60;86.60;;;;;;4938222;28;86318;-79
2023/06/19 02:31:32;;;;;;;4.28;3.05;;;19.50;87.10;;;;;;4938952;28;87906;-78
2023/06/19 02:33:57;;;;;;;5.40;3.20;;;19.50;87.60;;;;;;4938555;28;86440;-79
2023/06/19 02:36:23;;;;;;;4.68;3.00;;;19.40;87.90;;;;;;4938777;28;86146;-79
2023/06/19 02:38:49;;;;;;;4.32;3.03;;;19.30;88.20;;;;;;4935926;28;86096;-79
2023/06/19 02:41:15;;;;;;;5.53;3.30;;;19.30;88.70;;;;;;4938852;28;87027;-80
2023/06/19 02:43:44;;;;;;;5.10;3.25;;;19.30;88.70;;;;;;4937999;28;86420;-80
2023/06/19 02:46:10;;;;;;;4.45;3.20;;;19.20;89.10;;;;;;4938615;28;86197;-79
2023/06/19 02:48:35;;;;;;;5.72;3.20;;;19.20;89.10;;;;;;4938128;28;86381;-80
2023/06/19 02:51:01;;;;;;;5.32;3.60;;;19.10;89.50;;;;;;4938407;28;86449;-80
2023/06/19 02:53:26;;;;;;;5.78;3.03;;;19.10;89.70;;;;;;4970241;28;90219;-79
2023/06/19 02:55:52;;;;;;;5.10;3.97;;;19.10;90.00;;;;;;4938632;28;86386;-79
2023/06/19 02:58:18;;;;;;;7.25;3.25;;;19.00;90.20;;;;;;4937305;28;87213;-80
2023/06/19 03:00:44;;;;;;;7.53;3.67;;;19.00;90.20;;;;;;4938070;28;87294;-79
2023/06/19 03:03:10;;;;;;;4.38;3.22;;;18.90;90.40;;;;;;4937925;28;86324;-78
2023/06/19 03:05:35;;;;;;;6.22;3.53;;;18.90;90.50;;;;;;4939422;28;86292;-79
2023/06/19 03:08:01;;;;;;;7.40;3.60;;;18.90;90.70;;;;;;4938617;28;86162;-79
2023/06/19 03:10:26;;;;;;;5.70;3.17;;;18.90;90.70;;;;;;4938028;28;88317;-79
2023/06/19 03:12:52;;;;;;;5.07;3.03;;;18.80;90.80;;;;;;4937991;28;87427;-78
2023/06/19 03:15:18;;;;;;;5.00;2.72;;;18.90;90.90;;;;;;4937840;28;86429;-79
2023/06/19 03:17:44;;;;;;;8.75;2.90;;;18.90;90.90;;;;;;4969675;28;85951;-78
2023/06/19 03:20:11;;;;;;;6.03;3.40;;;18.80;91.00;;;;;;4937865;28;87988;-79
2023/06/19 03:22:39;;;;;;;7.50;3.28;;;18.80;91.00;;;;;;4938224;28;86791;-80
2023/06/19 03:25:06;;;;;;;5.55;2.90;;;18.90;91.00;;;;;;4941445;28;86415;-80
2023/06/19 03:27:31;;;;;;;5.28;3.15;;;18.90;90.90;;;;;;4971792;28;86156;-80
2023/06/19 03:29:57;;;;;;;5.07;2.97;;;18.90;91.00;;;;;;4972653;28;89128;-80
2023/06/19 03:32:22;;;;;;;5.38;4.10;;;18.90;91.10;;;;;;4941965;28;86704;-79
2023/06/19 03:34:48;;;;;;;4.88;3.13;;;18.90;91.10;;;;;;4941099;28;85988;-80
2023/06/19 03:37:14;;;;;;;3.75;2.90;;;18.90;91.10;;;;;;4941529;28;86220;-80
2023/06/19 03:39:39;;;;;;;5.03;3.78;;;18.90;91.20;;;;;;4940933;28;87431;-79
2023/06/19 03:42:05;;;;;;;5.30;3.88;;;19.00;91.30;;;;;;4970788;28;90007;-79
2023/06/19 03:44:31;;;;;;;5.07;3.67;;;19.00;91.30;;;;;;4971680;28;90681;-79
2023/06/19 03:46:57;;;;;;;7.97;3.83;;;19.00;91.30;;;;;;4939569;28;87634;-80
2023/06/19 03:49:22;;;;;;;7.32;4.40;;;19.00;91.30;;;;;;4938953;28;88095;-79
2023/06/19 03:51:48;;;;;;;5.63;3.80;;;19.00;91.40;;;;;;4938365;28;88829;-79
2023/06/19 03:54:13;;;;;;;5.90;4.28;;;19.00;91.30;;;;;;4940070;28;88752;-80
2023/06/19 03:56:39;;;;;;;8.32;4.88;;;19.00;91.30;;;;;;4939629;28;87892;-80
2023/06/19 03:59:04;;;;;;;5.63;4.32;;;19.00;91.30;;;;;;4939614;28;87964;-79
2023/06/19 04:01:30;;;;;;;6.82;5.35;;;19.10;91.30;;;;;;4938950;28;88671;-80
2023/06/19 04:03:56;;;;;;;6.22;5.20;;;19.10;91.40;;;;;;4939127;28;87969;-79
2023/06/19 04:06:21;;;;;;;8.15;5.90;;;19.10;91.30;;;;;;4970043;28;87950;-80
2023/06/19 04:08:47;;;;;;;8.50;5.88;;;19.10;91.40;;;;;;4970548;28;90662;-79
2023/06/19 04:11:12;;;;;;;6.80;5.38;;;19.10;91.30;;;;;;4971334;28;90551;-79
2023/06/19 04:13:38;;;;;;;7.03;5.43;;;19.20;91.30;;;;;;4939592;28;87600;-80
2023/06/19 04:16:04;;;;;;;6.13;4.90;;;19.20;91.30;;;;;;4938597;28;89423;-81
2023/06/19 04:18:29;;;;;;;7.03;5.25;;;19.10;91.40;;;;;;4940343;28;87312;-82
2023/06/19 04:20:55;;;;;;;6.15;4.63;;;19.20;91.40;;;;;;4939465;28;87355;-82
2023/06/19 04:23:20;;;;;;;6.18;4.88;;;19.20;91.30;;;;;;4940143;28;88317;-81
2023/06/19 04:25:46;;;;;;;7.28;4.63;;;19.20;91.30;;;;;;4939628;28;87690;-79
2023/06/19 04:28:12;;;;;;;11.13;5.25;;;19.20;91.30;;;;;;4939559;28;87924;-83
2023/06/19 04:30:39;;;;;;;7.28;4.70;;;19.30;91.40;;;;;;4940110;28;87612;-82
2023/06/19 04:33:06;;;;;;;6.70;5.13;;;19.30;91.50;;;;;;4939833;28;88234;-81
2023/06/19 04:35:32;;;;;;;7.95;5.80;;;19.30;92.10;;;;;;4939013;28;87380;-80
2023/06/19 04:38:00;;;;;;;8.55;6.20;;;19.20;92.50;;;;;;4939007;28;87582;-83
2023/06/19 04:40:27;;;;;;;8.93;6.40;;;19.20;93.00;;;;;;4938670;28;88734;-81
2023/06/19 04:42:53;;;;;;;8.45;6.53;;;19.10;93.30;;;;;;4938744;28;88398;-83
2023/06/19 04:45:19;;;;;;;7.93;5.78;;;19.10;93.40;;;;;;4970816;28;87758;-82
2023/06/19 04:47:45;;;;;;;8.63;6.68;;;19.00;93.60;;;;;;4939012;28;87865;-80
2023/06/19 04:50:11;;;;;;;9.35;6.80;;;19.00;93.90;;;;;;4938877;28;88558;-80
2023/06/19 04:52:37;;;;;;;8.60;5.47;;;19.00;93.90;;;;;;4938389;28;87875;-84
2023/06/19 04:55:05;;;;;;;9.05;6.15;;;18.90;94.00;;;;;;4939212;28;87935;-85
2023/06/19 04:57:31;;;;;;;8.73;5.30;;;18.90;94.00;;;;;;4939329;28;87195;-84
2023/06/19 04:59:56;;;;;;;8.05;5.60;;;18.90;94.00;;;;;;4938868;28;88668;-84
2023/06/19 05:02:23;;;;;;;8.48;5.32;;;18.90;94.30;;;;;;4940205;28;87619;-83
2023/06/19 05:04:49;;;;;;;10.23;6.45;;;18.90;94.10;;;;;;4970430;28;88579;-83
2023/06/19 05:07:17;;;;;;;7.55;6.00;;;18.90;94.30;;;;;;4938281;28;87932;-83
2023/06/19 05:09:43;;;;;;;8.68;6.03;;;18.90;94.30;;;;;;4938232;28;95720;-84
2023/06/19 05:12:10;;;;;;;9.05;6.00;;;18.90;94.40;;;;;;4938744;28;88877;-82
2023/06/19 05:14:35;;;;;;;13.40;7.28;;;18.90;94.40;;;;;;4939758;28;87534;-82
2023/06/19 05:17:01;;;;;;;12.05;6.45;;;18.90;94.40;;;;;;4938955;28;88068;-83
2023/06/19 05:19:26;;;;;;;11.45;6.97;;;19.00;94.40;;;;;;4938371;28;88539;-84
2023/06/19 05:21:52;;;;;;;12.52;7.65;;;19.00;94.40;;;;;;4938536;28;88473;-83
2023/06/19 05:24:18;;;;;;;11.18;6.75;;;19.10;94.30;;;;;;4938858;28;88078;-83
2023/06/19 05:26:43;;;;;;;9.60;7.40;;;19.10;94.00;;;;;;4939029;28;87942;-80
2023/06/19 05:29:09;;;;;;;9.75;6.60;;;19.10;93.80;;;;;;4939036;28;89662;-80
2023/06/19 05:31:35;;;;;;;10.43;6.28;;;19.10;93.50;;;;;;4970699;28;91577;-84
2023/06/19 05:34:01;;;;;;;8.25;6.00;;;19.10;92.90;;;;;;4969517;28;87662;-83
2023/06/19 05:36:26;;;;;;;9.13;6.80;;;19.20;92.80;;;;;;4938214;28;87920;-83
2023/06/19 05:38:52;;;;;;;8.73;6.60;;;19.20;92.70;;;;;;4938493;28;88651;-83
2023/06/19 05:41:17;;;;;;;12.57;6.57;;;19.20;92.20;;;;;;4969895;28;91318;-81
2023/06/19 05:43:43;;;;;;;7.45;6.30;;;19.30;91.80;;;;;;4938408;28;88894;-83
2023/06/19 05:46:09;;;;;;;9.57;5.88;;;19.30;91.80;;;;;;4938556;28;86965;-80
2023/06/19 05:48:34;;;;;;;9.07;6.13;;;19.30;91.80;;;;;;4938452;28;88062;-83
2023/06/19 05:51:00;;;;;;;6.80;5.05;;;19.40;91.50;;;;;;4938041;28;88391;-82
2023/06/19 05:53:25;;;;;;;8.88;5.47;;;19.40;90.60;;;;;;4938064;28;88645;-82
2023/06/19 05:55:51;;;;;;;7.70;4.53;;;19.50;90.70;;;;;;4935266;28;87132;-82
2023/06/19 05:58:19;;;;;;;7.78;4.80;;;19.50;90.20;;;;;;4934472;28;89103;-82
2023/06/19 06:00:46;;;;;;;8.23;5.22;;;19.50;90.10;;;;;;4935131;28;88775;-83
2023/06/19 06:03:13;;;;;;;7.82;5.70;;;19.60;90.30;;;;;;4965423;28;87690;-84
2023/06/19 06:05:39;;;;;;;9.27;5.93;;;19.70;90.00;;;;;;4966626;28;90583;-81
2023/06/19 06:08:04;;;;;;;10.07;5.43;;;19.70;90.00;;;;;;4936704;28;88276;-84
2023/06/19 06:10:30;;;;;;;9.32;7.03;;;19.70;89.60;;;;;;4937924;28;87895;-79
2023/06/19 06:12:56;;;;;;;9.23;5.30;;;19.70;89.60;;;;;;4937757;28;87803;-80
2023/06/19 06:15:22;;;;;;;10.43;6.32;;;19.70;89.30;;;;;;4937208;28;87517;-80
2023/06/19 06:17:47;;;;;;;10.35;6.40;;;19.80;89.00;;;;;;4937059;28;89776;-79
2023/06/19 06:20:13;;;;;;;12.55;6.88;;;19.90;88.90;;;;;;4937164;28;89829;-78
2023/06/19 06:22:39;;;;;;;10.88;6.53;;;19.90;88.00;;;;;;4937139;28;87856;-80
2023/06/19 06:25:05;;;;;;;11.18;5.72;;;19.90;88.10;;;;;;4936302;28;88105;-81
2023/06/19 06:27:31;;;;;;;12.40;5.97;;;20.00;88.30;;;;;;4936470;28;87900;-79
2023/06/19 06:29:57;;;;;;;8.45;6.13;;;20.10;87.20;;;;;;4936774;28;88422;-83
2023/06/19 06:32:22;;;;;;;10.93;6.38;;;20.10;86.70;;;;;;4968019;28;87687;-80
2023/06/19 06:34:48;;;;;;;9.93;6.32;;;20.10;86.20;;;;;;4935304;28;90599;-78
2023/06/19 06:37:16;;;;;;;8.55;6.38;;;20.20;86.50;;;;;;4967765;28;91708;-79
2023/06/19 06:39:41;;;;;;;9.63;7.03;;;20.30;85.50;;;;;;4967621;28;91448;-79
2023/06/19 06:42:07;;;;;;;10.48;6.97;;;20.30;85.30;;;;;;4967276;28;88561;-79
2023/06/19 06:44:32;;;;;;;10.35;7.10;;;20.40;83.80;;;;;;4937851;28;87919;-83
2023/06/19 06:46:58;;;;;;;12.10;7.43;;;20.40;84.30;;;;;;4936162;28;91196;-84
2023/06/19 06:49:24;;;;;;;9.98;6.82;;;20.50;83.60;;;;;;4963899;28;91038;-81
2023/06/19 06:51:50;;;;;;;8.10;6.47;;;20.60;83.10;;;;;;4967345;28;88465;-82
2023/06/19 06:54:15;;;;;;;8.90;6.40;;;20.70;82.00;;;;;;4934387;28;90223;-83
2023/06/19 06:56:47;;;;;;;9.27;6.78;;;20.70;81.10;;;;;;4936682;28;87586;-84
2023/06/19 06:59:16;;;;;;;10.27;6.35;;;20.80;80.20;;;;;;4934928;28;96768;-85
2023/06/19 07:01:42;;;;;;;11.88;6.25;;;20.80;80.10;;;;;;4937196;28;87374;-82
2023/06/19 07:04:07;;;;;;;13.20;6.35;;;20.90;80.20;;;;;;4968101;28;90651;-82
2023/06/19 07:06:33;;;;;;;11.15;6.88;;;21.00;79.90;;;;;;4934223;28;92888;-82
2023/06/19 07:08:58;;;;;;;10.82;6.95;;;21.20;79.90;;;;;;4936976;28;89652;-83
2023/06/19 07:11:24;;;;;;;12.43;6.80;;;21.30;78.60;;;;;;4938076;28;87634;-82
2023/06/19 07:13:50;;;;;;;8.85;6.43;;;21.40;77.50;;;;;;4935822;28;87994;-84
2023/06/19 07:16:15;;;;;;;8.70;6.22;;;21.40;76.80;;;;;;4936872;28;87801;-82
2023/06/19 07:18:41;;;;;;;6.68;5.45;;;21.40;75.70;;;;;;4936820;28;87675;-82
2023/06/19 07:21:14;;;;;;;7.35;5.85;;;21.50;76.00;;;;;;4936746;28;87771;-85
2023/06/19 07:23:41;;;;;;;11.80;5.50;;;21.60;75.80;;;;;;4937990;28;87532;-84
2023/06/19 07:26:06;;;;;;;9.23;5.32;;;21.70;75.30;;;;;;4935369;28;88152;-83
2023/06/19 07:28:32;;;;;;;9.05;5.97;;;21.70;74.40;;;;;;4966972;28;90305;-84
2023/06/19 07:30:57;;;;;;;7.68;5.28;;;21.80;74.80;;;;;;4967783;28;88801;-81
2023/06/19 07:33:23;;;;;;;6.15;5.40;;;21.90;73.90;;;;;;4966690;28;90419;-83
2023/06/19 07:35:49;;;;;;;8.48;5.80;;;22.00;74.50;;;;;;4968455;28;91626;-85
2023/06/19 07:38:15;;;;;;;9.48;5.10;;;22.00;73.50;;;;;;4968554;28;91098;-82
2023/06/19 07:40:41;;;;;;;12.20;5.85;;;22.00;71.60;;;;;;4968142;28;87678;-82
2023/06/19 07:43:06;;;;;;;46.65;7.70;;;22.10;73.60;;;;;;4967810;28;91095;-83
2023/06/19 07:45:32;;;;;;;10.38;5.30;;;22.10;74.00;;;;;;4967531;28;91936;-89
2023/06/19 07:47:57;;;;;;;6.68;5.07;;;22.10;73.10;;;;;;4968589;28;91408;-85
2023/06/19 07:50:23;;;;;;;6.45;4.70;;;22.20;72.80;;;;;;4968479;28;87701;-83
2023/06/19 07:52:49;;;;;;;9.63;5.35;;;22.20;73.20;;;;;;4935642;28;88615;-85
2023/06/19 07:55:14;;;;;;;8.55;5.60;;;22.30;72.30;;;;;;4935622;28;88803;-83
2023/06/19 07:57:40;;;;;;;11.18;5.72;;;22.20;72.00;;;;;;4968046;28;91061;-84
2023/06/19 08:00:12;;;;;;;8.23;5.70;;;22.20;71.60;;;;;;4967795;28;87663;-85
2023/06/19 08:02:39;;;;;;;7.15;5.88;;;22.20;72.00;;;;;;4970413;28;89173;-84
2023/06/19 08:05:06;;;;;;;8.85;6.22;;;22.20;73.00;;;;;;4967994;28;90629;-82
2023/06/19 08:07:31;;;;;;;7.72;6.05;;;22.30;73.40;;;;;;4966845;28;91045;-83
2023/06/19 08:09:57;;;;;;;6.95;5.00;;;22.30;73.10;;;;;;4967556;28;87364;-83
2023/06/19 08:12:23;;;;;;;6.78;5.28;;;22.40;74.80;;;;;;4970495;28;90460;-83
2023/06/19 08:14:48;;;;;;;6.20;4.97;;;22.60;73.20;;;;;;4970188;28;91577;-82
2023/06/19 08:17:14;;;;;;;9.10;5.75;;;22.70;73.80;;;;;;4971546;28;91079;-84
2023/06/19 08:19:39;;;;;;;8.82;4.72;;;22.80;72.00;;;;;;4970617;28;88606;-84
2023/06/19 08:22:06;;;;;;;7.72;4.72;;;22.90;72.10;;;;;;4970386;28;89903;-84
2023/06/19 08:24:31;;;;;;;10.38;5.25;;;23.00;71.50;;;;;;4936967;28;90115;-85
2023/06/19 08:26:57;;;;;;;8.13;4.50;;;23.00;71.20;;;;;;4970716;28;90813;-86
2023/06/19 08:29:23;;;;;;;6.45;4.25;;;23.10;69.90;;;;;;4972605;28;87598;-85
2023/06/19 08:31:48;;;;;;;6.50;4.22;;;23.10;69.20;;;;;;4938480;28;89549;-85
2023/06/19 08:34:14;;;;;;;5.00;4.25;;;23.20;67.70;;;;;;4937924;28;90493;-86
2023/06/19 08:36:40;;;;;;;6.63;4.03;;;23.10;67.00;;;;;;4971071;28;90765;-86
2023/06/19 08:39:08;;;;;;;7.03;5.03;;;23.10;67.10;;;;;;4970620;28;87591;-86
2023/06/19 08:41:34;;;;;;;6.90;4.25;;;23.10;67.10;;;;;;4971703;28;89977;-85
2023/06/19 08:44:00;;;;;;;6.97;4.65;;;23.20;67.40;;;;;;4970209;28;91061;-86
2023/06/19 08:46:26;;;;;;;7.72;5.13;;;23.20;68.30;;;;;;4969877;28;90784;-85
2023/06/19 08:48:55;;;;;;;8.77;5.15;;;23.30;67.20;;;;;;4970667;28;87829;-85
2023/06/19 08:51:20;;;;;;;7.75;5.07;;;23.40;66.50;;;;;;4937040;28;89528;-85
2023/06/19 08:53:54;;;;;;;7.10;4.82;;;23.40;64.40;;;;;;4970535;28;92189;-85
2023/06/19 08:56:19;;;;;;;;;;;23.40;65.50;;;;;;4939294;28;91818;-86
2023/06/19 08:58:45;;;;;;;7.82;4.80;;;23.30;66.20;;;;;;4939673;28;87686;-85
2023/06/19 09:01:11;;;;;;;6.13;4.32;;;23.40;68.00;;;;;;4970623;28;90032;-85
2023/06/19 09:03:36;;;;;;;8.23;5.05;;;23.50;66.40;;;;;;4969635;28;91240;-84
2023/06/19 09:06:08;;;;;;;8.75;4.95;;;23.70;65.90;;;;;;4968942;28;91097;-84
2023/06/19 09:08:34;;;;;;;9.00;4.82;;;23.70;65.50;;;;;;4970404;28;88948;-85
2023/06/19 09:11:04;;;;;;;8.65;4.38;;;23.80;65.50;;;;;;4953798;28;89080;-86
2023/06/19 09:13:31;;;;;;;6.03;4.20;;;23.90;65.20;;;;;;4929614;28;91084;-86
2023/06/19 09:16:15;;;;;;;7.57;4.70;;;24.00;64.70;;;;;;4969876;28;91277;-86
2023/06/19 09:18:48;;;;;;;6.43;4.43;;;24.10;63.80;;;;;;4937299;28;87979;-85
2023/06/19 09:21:24;;;;;;;7.07;3.92;;;24.20;62.70;;;;;;4969163;28;90018;-85
2023/06/19 09:23:53;;;;;;;8.68;4.85;;;24.30;62.80;;;;;;4970031;28;91746;-84
2023/06/19 09:26:20;;;;;;;7.35;4.53;;;24.40;63.50;;;;;;4970857;28;89968;-84
2023/06/19 09:28:46;;;;;;;4.70;4.07;;;24.50;63.30;;;;;;4969506;28;87718;-85
2023/06/19 09:31:12;;;;;;;5.20;4.60;;;24.50;63.80;;;;;;4970696;28;90581;-85
2023/06/19 09:33:39;;;;;;;8.85;4.32;;;24.60;63.90;;;;;;4928814;28;92308;-85
2023/06/19 09:36:06;;;;;;;5.63;4.15;;;24.80;62.10;;;;;;4929726;28;93421;-85
2023/06/19 09:38:35;;;;;;;6.32;4.72;;;24.80;61.70;;;;;;4970380;28;87149;-85
2023/06/19 09:41:03;;;;;;;6.43;4.40;;;24.90;61.50;;;;;;4936832;28;90481;-85
2023/06/19 09:43:41;;;;;;;7.07;4.47;;;25.00;60.50;;;;;;4969099;28;90722;-85
2023/06/19 09:46:08;;;;;;;9.23;4.88;;;25.00;60.40;;;;;;4936450;28;91492;-84
2023/06/19 09:48:35;;;;;;;6.25;4.30;;;25.00;59.90;;;;;;4952941;28;87509;-83
2023/06/19 09:51:23;;;;;;;6.63;5.03;;;25.10;60.50;;;;;;4969246;28;90205;-84
2023/06/19 09:53:50;;;;;;;7.78;5.07;;;25.10;59.10;;;;;;4936589;28;91124;-83
2023/06/19 09:56:21;;;;;;;8.60;5.00;;;25.20;58.90;;;;;;4928710;28;90128;-84
2023/06/19 09:58:49;;;;;;;6.57;4.80;;;25.30;58.00;;;;;;4936028;28;88517;-81
2023/06/19 10:01:18;;;;;;;9.02;4.55;;;25.40;59.60;;;;;;4967076;28;89105;-82
2023/06/19 10:03:44;;;;;;;6.45;4.30;;;25.50;59.10;;;;;;4952127;28;89331;-82
2023/06/19 10:06:15;;;;;;;8.95;4.65;;;25.60;59.00;;;;;;4937482;28;88304;-82
2023/06/19 10:08:42;;;;;;;11.02;4.57;;;25.90;59.00;;;;;;4928018;28;87671;-82
2023/06/19 10:11:10;;;;;;;6.95;4.13;;;26.00;58.30;;;;;;4928356;28;90431;-81
2023/06/19 10:13:40;;;;;;;6.60;4.10;;;26.10;57.30;;;;;;4968449;28;91162;-82
2023/06/19 10:16:19;;;;;;;6.82;4.57;;;26.20;57.00;;;;;;4935239;28;91729;-81
2023/06/19 10:18:46;;;;;;;8.07;4.68;;;26.20;56.90;;;;;;4967080;28;87333;-81
2023/06/19 10:21:17;;;;;;;9.05;3.92;;;26.30;55.30;;;;;;4928274;28;89740;-81
2023/06/19 10:23:43;;;;;;;8.77;4.68;;;26.20;55.60;;;;;;4937705;28;90039;-82
2023/06/19 10:26:15;;;;;;;8.75;4.70;;;26.20;55.30;;;;;;4968390;28;96408;-82
2023/06/19 10:28:47;;;;;;;6.85;4.88;;;26.10;56.00;;;;;;4935585;28;87841;-81
2023/06/19 10:31:12;;;;;;;6.65;4.50;;;26.00;55.30;;;;;;4952273;28;90425;-81
2023/06/19 10:33:41;;;;;;;7.53;4.55;;;26.00;55.60;;;;;;4935951;28;89496;-81
2023/06/19 10:36:18;;;;;;;8.18;4.53;;;26.00;55.10;;;;;;4936608;28;88789;-81
2023/06/19 10:38:47;;;;;;;8.52;4.53;;;26.00;53.80;;;;;;4968384;28;87598;-79
2023/06/19 10:41:22;;;;;;;7.95;5.22;;;26.10;54.20;;;;;;4969082;28;91389;-83
2023/06/19 10:44:03;;;;;;;9.13;5.10;;;26.20;54.10;;;;;;4935379;28;91618;-83
2023/06/19 10:46:31;;;;;;;8.35;5.35;;;26.20;53.90;;;;;;4934660;28;91139;-83
2023/06/19 10:49:00;;;;;;;9.70;5.00;;;26.10;53.40;;;;;;4935251;28;88375;-82
2023/06/19 10:51:28;;;;;;;7.45;5.03;;;26.20;54.40;;;;;;4936033;28;87669;-82
2023/06/19 10:53:55;;;;;;;8.50;4.97;;;26.30;54.30;;;;;;4967858;28;89514;-81
2023/06/19 10:56:22;;;;;;;8.18;5.22;;;26.40;54.40;;;;;;4929115;28;88905;-83
2023/06/19 10:58:48;;;;;;;7.07;4.90;;;26.50;53.90;;;;;;4935405;28;87308;-84
2023/06/19 11:01:14;;;;;;;7.32;4.43;;;26.60;54.80;;;;;;4968621;28;90300;-84
2023/06/19 11:03:39;;;;;;;6.75;4.50;;;26.80;54.50;;;;;;4967780;28;88849;-83
2023/06/19 11:06:05;;;;;;;7.90;5.50;;;27.00;54.00;;;;;;4935689;28;91371;-82
2023/06/19 11:08:31;;;;;;;9.00;5.50;;;27.00;52.30;;;;;;4969216;28;87262;-83
2023/06/19 11:10:57;;;;;;;6.88;4.63;;;27.10;54.30;;;;;;4967659;28;89135;-85
2023/06/19 11:13:22;;;;;;;7.65;4.82;;;27.30;53.20;;;;;;4926976;28;92314;-84
2023/06/19 11:15:49;;;;;;;5.25;4.47;;;27.40;53.20;;;;;;4928134;28;93508;-84
2023/06/19 11:18:17;;;;;;;12.07;5.50;;;27.60;53.90;;;;;;4951879;28;87987;-84
2023/06/19 11:20:48;;;;;;;6.95;5.20;;;27.90;51.60;;;;;;4968746;28;89964;-84
2023/06/19 11:23:14;;;;;;;6.07;5.22;;;27.90;51.60;;;;;;4932121;28;95716;-82
2023/06/19 11:25:40;;;;;;;6.50;4.50;;;28.00;51.60;;;;;;4916265;28;91082;-82
2023/06/19 11:28:17;;;;;;;7.20;4.50;;;28.20;51.80;;;;;;4915939;28;87628;-81
2023/06/19 11:30:43;;;;;;;10.10;5.03;;;28.40;50.00;;;;;;4915840;28;89009;-80
2023/06/19 11:33:21;;;;;;;7.47;5.15;;;28.40;50.30;;;;;;4916111;28;90646;-82
2023/06/19 11:35:51;;;;;;;6.20;4.45;;;28.40;49.90;;;;;;4915993;28;89975;-81
2023/06/19 11:38:25;;;;;;;7.60;4.68;;;28.50;51.10;;;;;;4916574;28;88001;-82
2023/06/19 11:40:51;;;;;;;5.78;4.72;;;28.70;50.70;;;;;;4916184;28;90123;-80
2023/06/19 11:43:27;;;;;;;8.27;5.20;;;28.90;49.20;;;;;;4915290;28;91545;-80
2023/06/19 11:45:53;;;;;;;6.35;5.28;;;28.90;48.00;;;;;;4918663;28;90068;-82
2023/06/19 11:48:25;;;;;;;6.68;4.90;;;28.90;47.70;;;;;;4935703;28;87422;-82
2023/06/19 11:50:52;;;;;;;6.93;5.00;;;28.80;48.60;;;;;;4919061;28;90443;-83
2023/06/19 11:53:22;;;;;;;8.68;4.70;;;28.90;47.10;;;;;;4910578;28;92211;-81
2023/06/19 11:55:48;;;;;;;8.68;5.20;;;28.80;45.50;;;;;;4917694;28;91268;-81
2023/06/19 11:58:17;;;;;;;8.60;5.15;;;28.80;47.10;;;;;;4935001;28;87407;-83
2023/06/19 12:00:43;;;;;;;8.55;4.97;;;28.70;47.70;;;;;;4919038;28;89547;-84
2023/06/19 12:03:09;;;;;;;7.60;4.60;;;28.60;46.50;;;;;;4919079;28;92421;-82
2023/06/19 12:05:35;;;;;;;7.22;5.00;;;28.70;45.20;;;;;;4919742;28;92384;-82
2023/06/19 12:08:05;;;;;;;8.32;4.68;;;28.80;44.90;;;;;;4919625;28;87661;-82
2023/06/19 12:10:31;;;;;;;9.30;4.53;;;28.80;46.40;;;;;;4918679;28;90547;-82
2023/06/19 12:12:56;;;;;;;10.60;5.43;;;29.20;44.90;;;;;;4919226;28;90039;-83
2023/06/19 12:15:24;;;;;;;9.23;4.53;;;29.50;45.40;;;;;;4917922;28;91261;-83
2023/06/19 12:17:51;;;;;;;7.70;4.85;;;29.60;46.70;;;;;;4917841;28;87998;-84
2023/06/19 12:20:17;;;;;;;7.53;4.38;;;29.80;45.60;;;;;;4919933;28;89643;-83
2023/06/19 12:22:42;;;;;;;5.65;4.38;;;30.10;45.30;;;;;;4918487;28;91843;-82
2023/06/19 12:25:08;;;;;;;7.22;4.65;;;30.20;43.00;;;;;;4917981;28;91165;-84
2023/06/19 12:27:34;;;;;;;7.13;4.68;;;30.30;43.50;;;;;;4918902;28;88447;-84
2023/06/19 12:30:00;;;;;;;7.47;4.55;;;30.30;44.00;;;;;;4919060;28;89931;-83
2023/06/19 12:32:25;;;;;;;8.68;4.72;;;30.50;42.80;;;;;;4919584;28;91450;-83
2023/06/19 12:34:53;;;;;;;6.03;4.32;;;30.60;44.10;;;;;;4918135;28;91334;-82
2023/06/19 12:37:20;;;;;;;6.65;4.50;;;30.70;42.50;;;;;;4918567;28;87859;-80
2023/06/19 12:39:47;;;;;;;12.82;4.22;;;30.80;42.20;;;;;;4918421;28;89130;-83
2023/06/19 12:42:13;;;;;;;6.65;4.13;;;30.70;43.20;;;;;;4933424;28;90349;-81
2023/06/19 12:44:40;;;;;;;8.70;4.47;;;30.80;43.00;;;;;;4919174;28;90202;-82